createdAt,value
2023-01-18T00:00:40.263Z,2.90
2023-01-18T00:03:13.184Z,2.90
2023-01-18T00:05:41.540Z,2.90
2023-01-18T00:08:13.850Z,2.90
2023-01-18T00:10:40.492Z,2.90
2023-01-18T00:13:07.137Z,2.90
2023-01-18T00:15:37.148Z,2.90
2023-01-18T00:18:04.209Z,2.80
2023-01-18T00:20:31.805Z,2.80
2023-01-18T00:23:01.542Z,2.80
2023-01-18T00:25:28.896Z,2.80
2023-01-18T00:27:56.317Z,2.80
2023-01-18T00:30:26.730Z,2.80
2023-01-18T00:32:56.087Z,2.80
2023-01-18T00:35:24.076Z,2.70
2023-01-18T00:37:51.847Z,2.70
2023-01-18T00:40:22.764Z,2.70
2023-01-18T00:43:08.301Z,2.60
2023-01-18T00:45:35.276Z,2.60
2023-01-18T00:48:03.339Z,2.60
2023-01-18T00:50:30.087Z,2.50
2023-01-18T00:53:00.111Z,2.50
2023-01-18T00:55:27.356Z,2.50
2023-01-18T00:57:54.160Z,2.40
2023-01-18T01:00:26.755Z,2.50
2023-01-18T01:02:53.942Z,2.40
2023-01-18T01:05:41.831Z,2.40
2023-01-18T01:08:17.278Z,2.40
2023-01-18T01:10:46.383Z,2.40
2023-01-18T01:13:33.864Z,2.30
2023-01-18T01:16:27.056Z,2.30
2023-01-18T01:19:13.384Z,2.30
2023-01-18T01:21:59.703Z,2.30
2023-01-18T01:24:45.601Z,2.30
2023-01-18T01:27:13.713Z,2.30
2023-01-18T01:29:40.471Z,2.30
2023-01-18T01:32:07.143Z,2.30
2023-01-18T01:34:33.857Z,2.30
2023-01-18T01:37:00.549Z,2.30
2023-01-18T01:39:27.287Z,2.20
2023-01-18T01:41:54.530Z,2.20
2023-01-18T01:44:21.146Z,2.20
2023-01-18T01:47:09.439Z,2.20
2023-01-18T01:49:40.672Z,2.20
2023-01-18T01:52:10.322Z,2.20
2023-01-18T01:54:40.306Z,2.20
2023-01-18T01:57:18.631Z,2.20
2023-01-18T02:00:02.793Z,2.10
2023-01-18T02:02:30.938Z,2.10
2023-01-18T02:04:59.052Z,2.10
2023-01-18T02:07:26.363Z,2.10
2023-01-18T02:09:54.295Z,2.10
2023-01-18T02:12:21.028Z,2.10
2023-01-18T02:14:47.670Z,2.10
2023-01-18T02:17:22.963Z,2.10
2023-01-18T02:20:06.772Z,2.10
2023-01-18T02:22:52.038Z,2.10
2023-01-18T02:25:22.814Z,2.00
2023-01-18T02:28:07.639Z,2.00
2023-01-18T02:30:52.260Z,2.00
2023-01-18T02:33:27.751Z,2.00
2023-01-18T02:35:57.234Z,2.00
2023-01-18T02:38:36.330Z,2.00
2023-01-18T02:41:19.619Z,2.00
2023-01-18T02:44:20.644Z,2.00
2023-01-18T02:46:47.454Z,2.00
2023-01-18T02:49:32.516Z,2.00
2023-01-18T02:52:03.469Z,2.00
2023-01-18T02:54:33.850Z,2.00
2023-01-18T02:57:05.897Z,2.00
2023-01-18T02:59:44.062Z,2.00
2023-01-18T03:02:16.310Z,2.00
2023-01-18T03:04:54.080Z,2.10
2023-01-18T03:07:45.801Z,2.10
2023-01-18T03:10:14.043Z,2.10
2023-01-18T03:12:52.530Z,2.10
2023-01-18T03:15:53.617Z,2.10
2023-01-18T03:19:00.028Z,2.10
2023-01-18T03:21:42.876Z,2.10
2023-01-18T03:24:11.677Z,2.10
2023-01-18T03:26:47.040Z,2.10
2023-01-18T03:29:34.151Z,2.10
2023-01-18T03:32:32.396Z,2.10
2023-01-18T03:35:10.361Z,2.10
2023-01-18T03:37:41.985Z,2.10
2023-01-18T03:40:13.469Z,2.00
2023-01-18T03:43:01.010Z,2.00
2023-01-18T03:45:34.344Z,2.00
2023-01-18T03:48:02.277Z,2.00
2023-01-18T03:50:45.400Z,2.00
2023-01-18T03:53:16.781Z,2.00
2023-01-18T03:55:49.017Z,2.00
2023-01-18T03:58:24.533Z,2.00
2023-01-18T04:00:53.144Z,2.00
2023-01-18T04:03:19.770Z,2.00
2023-01-18T04:05:46.762Z,2.00
2023-01-18T04:08:14.562Z,1.90
2023-01-18T04:10:41.192Z,1.90
2023-01-18T04:13:07.850Z,1.90
2023-01-18T04:15:34.486Z,1.90
2023-01-18T04:18:01.103Z,1.90
2023-01-18T04:20:27.731Z,1.90
2023-01-18T04:22:55.070Z,1.90
2023-01-18T04:25:22.126Z,1.90
2023-01-18T04:27:48.802Z,1.90
2023-01-18T04:30:15.962Z,1.90
2023-01-18T04:32:42.886Z,2.00
2023-01-18T04:35:10.151Z,1.90
2023-01-18T04:37:39.052Z,1.90
2023-01-18T04:40:06.748Z,1.90
2023-01-18T04:42:33.588Z,1.90
2023-01-18T04:45:00.264Z,1.90
2023-01-18T04:47:30.963Z,1.80
2023-01-18T04:49:57.699Z,1.80
2023-01-18T04:52:25.227Z,1.70
2023-01-18T04:54:52.252Z,1.70
2023-01-18T04:57:18.931Z,1.70
2023-01-18T04:59:45.936Z,1.60
2023-01-18T05:02:15.936Z,1.60
2023-01-18T05:04:43.554Z,1.50
2023-01-18T05:07:11.082Z,1.50
2023-01-18T05:09:37.758Z,1.50
2023-01-18T05:12:04.620Z,1.60
2023-01-18T05:14:31.239Z,1.60
2023-01-18T05:16:57.863Z,1.60
2023-01-18T05:19:24.480Z,1.50
2023-01-18T05:21:51.101Z,1.50
2023-01-18T05:24:17.740Z,1.60
2023-01-18T05:26:45.072Z,1.60
2023-01-18T05:29:11.736Z,1.60
2023-01-18T05:31:38.446Z,1.70
2023-01-18T05:34:05.515Z,1.70
2023-01-18T05:36:32.167Z,1.70
2023-01-18T05:38:58.784Z,1.70
2023-01-18T05:41:25.486Z,1.60
2023-01-18T05:43:52.103Z,1.70
2023-01-18T05:46:18.734Z,1.60
2023-01-18T05:48:45.355Z,1.60
2023-01-18T05:51:13.593Z,1.60
2023-01-18T05:53:40.761Z,1.60
2023-01-18T05:56:08.822Z,1.60
2023-01-18T05:58:35.599Z,1.60
2023-01-18T06:01:02.321Z,1.60
2023-01-18T06:03:28.983Z,1.60
2023-01-18T06:05:55.680Z,1.60
2023-01-18T06:08:22.359Z,1.60
2023-01-18T06:10:56.958Z,1.60
2023-01-18T06:13:27.870Z,1.60
2023-01-18T06:15:55.563Z,1.60
2023-01-18T06:18:23.119Z,1.60
2023-01-18T06:20:49.990Z,1.60
2023-01-18T06:23:16.638Z,1.60
2023-01-18T06:25:43.379Z,1.60
2023-01-18T06:28:10.081Z,1.60
2023-01-18T06:30:36.715Z,1.70
2023-01-18T06:33:06.818Z,1.60
2023-01-18T06:35:36.978Z,1.70
2023-01-18T06:38:04.701Z,1.60
2023-01-18T06:40:31.780Z,1.60
2023-01-18T06:42:58.737Z,1.60
2023-01-18T06:45:25.921Z,1.60
2023-01-18T06:47:53.034Z,1.60
2023-01-18T06:50:19.651Z,1.50
2023-01-18T06:52:46.309Z,1.50
2023-01-18T06:55:14.525Z,1.50
2023-01-18T06:57:41.610Z,1.50
2023-01-18T07:00:09.382Z,1.50
2023-01-18T07:02:36.838Z,1.50
2023-01-18T07:05:05.023Z,1.50
2023-01-18T07:07:32.061Z,1.50
2023-01-18T07:09:58.686Z,1.50
2023-01-18T07:12:25.509Z,1.60
2023-01-18T07:14:52.219Z,1.60
2023-01-18T07:17:19.079Z,1.60
2023-01-18T07:19:45.722Z,1.60
2023-01-18T07:22:13.327Z,1.60
2023-01-18T07:24:39.992Z,1.60
2023-01-18T07:27:06.641Z,1.60
2023-01-18T07:29:33.264Z,1.60
2023-01-18T07:32:01.090Z,1.60
2023-01-18T07:34:27.849Z,1.60
2023-01-18T07:36:54.759Z,1.60
2023-01-18T07:39:21.394Z,1.60
2023-01-18T07:41:48.038Z,1.70
2023-01-18T07:44:15.249Z,1.70
2023-01-18T07:46:43.206Z,1.70
2023-01-18T07:49:09.991Z,1.70
2023-01-18T07:51:36.821Z,1.80
2023-01-18T07:54:03.690Z,1.80
2023-01-18T07:56:30.630Z,1.90
2023-01-18T07:58:57.314Z,1.90
2023-01-18T08:01:24.350Z,1.90
2023-01-18T08:03:51.462Z,2.00
2023-01-18T08:06:24.968Z,2.00
2023-01-18T08:08:52.196Z,2.10
2023-01-18T08:11:19.574Z,2.10
2023-01-18T08:13:48.835Z,2.20
2023-01-18T08:16:16.207Z,2.20
2023-01-18T08:18:45.119Z,2.30
2023-01-18T08:21:13.496Z,2.30
2023-01-18T08:23:40.969Z,2.40
2023-01-18T08:26:09.329Z,2.40
2023-01-18T08:28:36.077Z,2.50
2023-01-18T08:31:13.212Z,2.50
2023-01-18T08:33:42.960Z,2.60
2023-01-18T08:36:11.312Z,2.70
2023-01-18T08:38:38.073Z,2.80
2023-01-18T08:41:05.121Z,2.90
2023-01-18T08:43:31.800Z,3.00
2023-01-18T08:45:59.233Z,3.20
2023-01-18T08:48:26.073Z,3.30
2023-01-18T08:50:52.711Z,3.40
2023-01-18T08:53:19.366Z,3.60
2023-01-18T08:55:45.989Z,3.70
2023-01-18T08:58:13.011Z,3.80
2023-01-18T09:00:39.740Z,3.90
2023-01-18T09:03:06.873Z,4.00
2023-01-18T09:05:35.649Z,4.10
2023-01-18T09:08:02.815Z,4.20
2023-01-18T09:10:29.607Z,4.30
2023-01-18T09:12:56.613Z,4.50
2023-01-18T09:15:23.648Z,4.60
2023-01-18T09:17:50.307Z,4.70
2023-01-18T09:20:18.839Z,4.90
2023-01-18T09:22:47.696Z,5.10
2023-01-18T09:25:14.585Z,5.30
2023-01-18T09:27:41.191Z,5.50
2023-01-18T09:30:09.427Z,5.70
2023-01-18T09:32:36.146Z,5.80
2023-01-18T09:35:03.469Z,5.90
2023-01-18T09:37:31.401Z,5.90
2023-01-18T09:39:58.103Z,6.00
2023-01-18T09:42:34.313Z,6.20
2023-01-18T09:45:01.995Z,6.30
2023-01-18T09:47:36.718Z,6.50
2023-01-18T09:50:17.586Z,6.80
2023-01-18T09:53:16.253Z,7.10
2023-01-18T09:56:16.826Z,7.40
2023-01-18T09:59:03.654Z,7.80
2023-01-18T10:01:33.892Z,8.20
2023-01-18T10:04:06.209Z,8.30
2023-01-18T10:06:45.872Z,8.70
2023-01-18T10:09:20.762Z,9.00
2023-01-18T10:12:00.612Z,9.30
2023-01-18T10:15:10.470Z,9.70
2023-01-18T10:17:41.050Z,10.30
2023-01-18T10:20:28.210Z,10.80
2023-01-18T10:23:11.812Z,11.20
2023-01-18T10:25:53.248Z,11.40
2023-01-18T10:28:47.652Z,11.60
2023-01-18T10:31:32.944Z,11.40
2023-01-18T10:34:02.675Z,11.40
2023-01-18T10:36:33.246Z,11.90
2023-01-18T10:39:04.220Z,12.50
2023-01-18T10:41:38.387Z,13.10
2023-01-18T10:44:05.271Z,14.10
2023-01-18T10:46:32.051Z,14.70
2023-01-18T10:48:59.159Z,15.10
2023-01-18T10:51:37.158Z,15.50
2023-01-18T10:54:18.874Z,16.10
2023-01-18T10:56:45.744Z,17.00
2023-01-18T10:59:36.060Z,17.70
2023-01-18T11:02:04.936Z,18.10
2023-01-18T11:04:33.562Z,18.50
2023-01-18T11:07:02.513Z,19.00
2023-01-18T11:09:40.740Z,19.60
2023-01-18T11:14:54.668Z,19.30
2023-01-18T11:17:21.287Z,18.30
2023-01-18T11:20:05.374Z,17.20
2023-01-18T11:22:33.497Z,16.50
2023-01-18T11:25:00.176Z,15.40
2023-01-18T11:27:26.931Z,14.90
2023-01-18T11:29:54.389Z,14.20
2023-01-18T11:32:26.758Z,13.50
2023-01-18T11:34:55.875Z,12.90
2023-01-18T11:37:35.545Z,13.00
2023-01-18T11:40:26.630Z,13.20
2023-01-18T11:43:03.492Z,13.50
2023-01-18T11:45:32.654Z,13.50
2023-01-18T11:48:28.585Z,13.50
2023-01-18T11:51:20.981Z,13.40
2023-01-18T11:54:18.768Z,13.30
2023-01-18T11:56:49.558Z,13.20
2023-01-18T11:59:42.755Z,13.20
2023-01-18T12:02:36.785Z,13.10
2023-01-18T12:05:12.329Z,12.70
2023-01-18T12:08:02.884Z,12.50
2023-01-18T12:10:42.026Z,12.40
2023-01-18T12:13:14.150Z,12.20
2023-01-18T12:15:46.792Z,12.10
2023-01-18T12:18:40.647Z,12.20
2023-01-18T12:21:20.983Z,12.40
2023-01-18T12:24:15.483Z,12.80
2023-01-18T12:27:00.177Z,13.10
2023-01-18T12:30:05.073Z,13.10
2023-01-18T12:32:54.986Z,13.10
2023-01-18T12:35:49.204Z,13.00
2023-01-18T12:38:31.219Z,12.50
2023-01-18T12:41:34.144Z,11.70
2023-01-18T12:44:44.324Z,11.30
2023-01-18T12:47:38.038Z,10.80
2023-01-18T12:50:23.270Z,10.90
2023-01-18T12:52:54.555Z,11.30
2023-01-18T12:55:24.037Z,12.10
2023-01-18T12:57:55.256Z,12.30
2023-01-18T13:00:28.115Z,12.10
2023-01-18T13:02:57.460Z,11.90
2023-01-18T13:05:43.901Z,11.60
2023-01-18T13:08:23.793Z,11.40
2023-01-18T13:10:51.884Z,11.30
2023-01-18T13:13:28.707Z,11.00
2023-01-18T13:16:20.023Z,10.60
2023-01-18T13:18:51.014Z,10.30
2023-01-18T13:21:44.623Z,10.10
2023-01-18T13:24:36.477Z,9.90
2023-01-18T13:27:11.696Z,10.10
2023-01-18T13:29:39.528Z,10.40
2023-01-18T13:32:29.210Z,10.60
2023-01-18T13:35:18.089Z,10.90
2023-01-18T13:37:49.747Z,10.80
2023-01-18T13:40:41.099Z,10.90
2023-01-18T13:43:32.923Z,10.70
2023-01-18T13:46:07.675Z,10.50
2023-01-18T13:48:58.099Z,10.20
2023-01-18T13:51:39.812Z,10.00
2023-01-18T13:54:29.782Z,9.70
2023-01-18T13:57:05.416Z,9.40
2023-01-18T13:59:47.671Z,9.20
2023-01-18T14:02:42.402Z,9.00
2023-01-18T14:05:27.460Z,8.80
2023-01-18T14:08:00.548Z,8.60
2023-01-18T14:10:31.921Z,8.40
2023-01-18T14:13:00.821Z,8.20
2023-01-18T14:15:36.945Z,8.00
2023-01-18T14:18:14.062Z,7.90
2023-01-18T14:21:04.988Z,7.70
2023-01-18T14:23:59.681Z,7.60
2023-01-18T14:26:31.925Z,7.50
2023-01-18T14:29:11.102Z,7.40
2023-01-18T14:31:42.594Z,7.40
2023-01-18T14:34:41.431Z,7.30
2023-01-18T14:37:34.098Z,7.20
2023-01-18T14:40:20.618Z,7.30
2023-01-18T14:42:55.178Z,7.20
2023-01-18T14:45:54.164Z,7.10
2023-01-18T14:48:23.120Z,7.00
2023-01-18T14:50:54.106Z,7.00
2023-01-18T14:53:27.222Z,6.90
2023-01-18T14:56:15.675Z,6.80
2023-01-18T14:58:50.381Z,6.60
2023-01-18T15:01:38.899Z,6.60
2023-01-18T15:04:18.447Z,6.50
2023-01-18T15:06:57.586Z,6.50
2023-01-18T15:09:28.023Z,6.50
2023-01-18T15:12:01.137Z,6.40
2023-01-18T15:14:34.368Z,6.40
2023-01-18T15:17:02.266Z,6.40
2023-01-18T15:19:33.274Z,6.40
2023-01-18T15:22:02.068Z,6.30
2023-01-18T15:24:29.429Z,6.20
2023-01-18T15:27:02.278Z,6.20
2023-01-18T15:29:34.788Z,6.10
2023-01-18T15:32:20.733Z,6.10
2023-01-18T15:34:49.099Z,6.00
2023-01-18T15:37:37.512Z,6.00
2023-01-18T15:40:23.627Z,5.90
2023-01-18T15:43:06.758Z,5.70
2023-01-18T15:45:39.953Z,5.60
2023-01-18T15:48:15.120Z,5.40
2023-01-18T15:50:48.719Z,5.10
2023-01-18T15:53:23.320Z,4.90
2023-01-18T15:55:53.338Z,4.80
2023-01-18T15:58:25.332Z,4.60
2023-01-18T16:00:58.495Z,4.50
2023-01-18T16:03:28.959Z,4.30
2023-01-18T16:06:11.017Z,4.20
2023-01-18T16:08:56.726Z,4.10
2023-01-18T16:11:32.300Z,3.90
2023-01-18T16:14:01.810Z,3.90
2023-01-18T16:16:29.535Z,3.70
2023-01-18T16:19:06.563Z,3.50
2023-01-18T16:21:40.471Z,3.40
2023-01-18T16:24:27.313Z,3.30
2023-01-18T16:26:55.366Z,3.20
2023-01-18T16:29:22.204Z,3.10
2023-01-18T16:31:48.931Z,3.00
2023-01-18T16:34:20.250Z,2.90
2023-01-18T16:36:48.378Z,2.80
2023-01-18T16:39:15.102Z,2.70
2023-01-18T16:41:45.620Z,2.70
2023-01-18T16:44:12.317Z,2.60
2023-01-18T16:46:38.978Z,2.50
2023-01-18T16:49:11.573Z,2.50
2023-01-18T16:51:38.635Z,2.40
2023-01-18T16:54:05.483Z,2.30
2023-01-18T16:56:32.344Z,2.20
2023-01-18T16:58:59.409Z,2.20
2023-01-18T17:01:26.173Z,2.10
2023-01-18T17:03:52.848Z,2.10
2023-01-18T17:06:21.950Z,2.00
2023-01-18T17:08:49.321Z,1.90
2023-01-18T17:11:17.451Z,1.80
2023-01-18T17:13:44.970Z,1.70
2023-01-18T17:16:16.259Z,1.70
2023-01-18T17:18:43.365Z,1.60
2023-01-18T17:21:11.230Z,1.60
2023-01-18T17:23:42.083Z,1.50
2023-01-18T17:26:13.342Z,1.40
2023-01-18T17:28:39.989Z,1.40
2023-01-18T17:31:06.749Z,1.20
2023-01-18T17:33:35.993Z,1.10
2023-01-18T17:38:34.434Z,1.00
2023-01-18T17:41:01.451Z,1.00
2023-01-18T17:43:33.867Z,0.80
2023-01-18T17:46:05.343Z,0.90
2023-01-18T17:48:32.057Z,0.80
2023-01-18T17:50:58.905Z,0.80
2023-01-18T17:53:25.874Z,0.80
2023-01-18T17:55:52.598Z,0.80
2023-01-18T17:58:19.286Z,0.70
2023-01-18T18:00:46.017Z,0.70
2023-01-18T18:03:13.180Z,0.70
2023-01-18T18:05:39.976Z,0.70
2023-01-18T18:08:07.960Z,0.60
2023-01-18T18:10:34.628Z,0.60
2023-01-18T18:13:01.726Z,0.50
2023-01-18T18:15:28.668Z,0.40
2023-01-18T18:17:55.322Z,0.30
2023-01-18T18:20:22.943Z,0.30
2023-01-18T18:22:49.857Z,0.30
2023-01-18T18:25:16.719Z,0.20
2023-01-18T18:27:46.457Z,0.10
2023-01-18T18:30:14.411Z,0.10
2023-01-18T18:32:41.050Z,0.10
2023-01-18T18:35:23.219Z,0.00
2023-01-18T18:37:51.670Z,0.00
2023-01-18T18:40:18.925Z,0.00
2023-01-18T18:42:56.510Z,0.00
2023-01-18T18:45:27.253Z,0.10
2023-01-18T18:47:53.903Z,0.10
2023-01-18T18:50:20.564Z,0.00
2023-01-18T18:52:47.191Z,0.00
2023-01-18T18:55:13.991Z,0.00
2023-01-18T18:57:40.761Z,0.00
2023-01-18T19:00:08.239Z,0.00
2023-01-18T19:02:35.674Z,0.00
2023-01-18T19:05:02.431Z,-0.10
2023-01-18T19:07:29.203Z,-0.10
2023-01-18T19:09:55.909Z,-0.10
2023-01-18T19:12:22.613Z,-0.10
2023-01-18T19:14:49.342Z,-0.20
2023-01-18T19:17:28.831Z,-0.20
2023-01-18T19:19:55.772Z,-0.20
2023-01-18T19:22:22.400Z,-0.30
2023-01-18T19:24:49.315Z,-0.30
2023-01-18T19:27:16.427Z,-0.30
2023-01-18T19:29:43.297Z,-0.40
2023-01-18T19:32:10.153Z,-0.50
2023-01-18T19:34:38.402Z,-0.60
2023-01-18T19:37:05.323Z,-0.60
2023-01-18T19:39:34.671Z,-0.50
2023-01-18T19:42:02.311Z,-0.50
2023-01-18T19:44:29.241Z,-0.50
2023-01-18T19:46:56.848Z,-0.50
2023-01-18T19:49:26.184Z,-0.40
2023-01-18T19:51:54.445Z,-0.40
2023-01-18T19:54:21.544Z,-0.40
2023-01-18T19:56:48.184Z,-0.40
2023-01-18T19:59:15.037Z,-0.40
2023-01-18T20:01:41.781Z,-0.50
2023-01-18T20:04:08.852Z,-0.60
2023-01-18T20:06:38.407Z,-0.60
2023-01-18T20:09:17.710Z,-0.60
2023-01-18T20:11:45.063Z,-0.60
2023-01-18T20:14:12.157Z,-0.60
2023-01-18T20:16:39.174Z,-0.60
2023-01-18T20:19:05.840Z,-0.60
2023-01-18T20:21:32.476Z,-0.60
2023-01-18T20:23:59.180Z,-0.60
2023-01-18T20:26:35.753Z,-0.60
2023-01-18T20:29:08.481Z,-0.70
2023-01-18T20:31:36.686Z,-0.70
2023-01-18T20:34:04.608Z,-0.70
2023-01-18T20:36:32.057Z,-0.70
2023-01-18T20:38:58.738Z,-0.80
2023-01-18T20:41:25.370Z,-0.80
2023-01-18T20:43:52.530Z,-0.80
2023-01-18T20:46:19.184Z,-0.80
2023-01-18T20:48:46.744Z,-0.80
2023-01-18T20:51:13.871Z,-0.80
2023-01-18T20:53:40.527Z,-0.80
2023-01-18T20:56:23.411Z,-0.90
2023-01-18T20:58:54.755Z,-0.90
2023-01-18T21:01:21.849Z,-0.90
2023-01-18T21:03:56.324Z,-0.90
2023-01-18T21:06:23.226Z,-1.00
2023-01-18T21:08:54.170Z,-1.10
2023-01-18T21:11:25.375Z,-1.10
2023-01-18T21:13:53.154Z,-1.10
2023-01-18T21:16:20.058Z,-1.00
2023-01-18T21:18:46.773Z,-1.00
2023-01-18T21:21:13.477Z,-0.90
2023-01-18T21:23:40.283Z,-0.80
2023-01-18T21:26:09.572Z,-0.80
2023-01-18T21:28:36.938Z,-0.80
2023-01-18T21:31:04.721Z,-0.80
2023-01-18T21:33:31.889Z,-0.80
2023-01-18T21:36:08.019Z,-0.80
2023-01-18T21:38:35.815Z,-0.90
2023-01-18T21:41:21.140Z,-0.90
2023-01-18T21:44:06.580Z,-0.90
2023-01-18T21:46:33.338Z,-1.00
2023-01-18T21:49:07.114Z,-1.00
2023-01-18T21:51:52.894Z,-1.00
2023-01-18T21:54:21.936Z,-1.20
2023-01-18T21:56:48.706Z,-1.20
2023-01-18T21:59:15.301Z,-1.30
2023-01-18T22:01:44.999Z,-1.30
2023-01-18T22:04:32.811Z,-1.30
2023-01-18T22:07:00.097Z,-1.20
2023-01-18T22:09:28.263Z,-1.20
2023-01-18T22:11:58.517Z,-1.20
2023-01-18T22:14:25.645Z,-1.20
2023-01-18T22:16:52.590Z,-1.30
2023-01-18T22:19:19.298Z,-1.20
2023-01-18T22:21:47.086Z,-1.20
2023-01-18T22:24:14.565Z,-1.10
2023-01-18T22:26:42.183Z,-1.20
2023-01-18T22:29:09.331Z,-1.10
2023-01-18T22:31:36.280Z,-1.10
2023-01-18T22:34:05.435Z,-1.10
2023-01-18T22:36:33.005Z,-1.10
2023-01-18T22:39:00.024Z,-1.10
2023-01-18T22:41:28.762Z,-1.00
2023-01-18T22:43:55.952Z,-1.00
2023-01-18T22:46:23.939Z,-1.00
2023-01-18T22:48:52.345Z,-1.00
2023-01-18T22:51:22.785Z,-1.00
2023-01-18T22:53:49.851Z,-1.00
2023-01-18T22:56:21.911Z,-1.10
2023-01-18T22:58:49.319Z,-1.10
2023-01-18T23:01:33.464Z,-1.10
2023-01-18T23:04:02.237Z,-1.10
2023-01-18T23:06:34.720Z,-1.10
2023-01-18T23:09:01.394Z,-1.00
2023-01-18T23:11:29.815Z,-1.00
2023-01-18T23:14:16.711Z,-1.00
2023-01-18T23:17:02.766Z,-1.00
2023-01-18T23:19:30.919Z,-0.90
2023-01-18T23:21:58.004Z,-0.90
2023-01-18T23:24:25.414Z,-0.90
2023-01-18T23:26:52.348Z,-0.90
2023-01-18T23:29:19.967Z,-1.00
2023-01-18T23:31:46.811Z,-0.90
2023-01-18T23:34:13.566Z,-0.90
2023-01-18T23:36:40.194Z,-1.00
2023-01-18T23:39:25.743Z,-1.00
2023-01-18T23:42:11.031Z,-0.90
2023-01-18T23:44:56.414Z,-0.90
2023-01-18T23:47:41.790Z,-0.90
2023-01-18T23:50:27.727Z,-0.90
2023-01-18T23:53:13.098Z,-0.90
2023-01-18T23:55:41.333Z,-1.00
2023-01-18T23:58:07.997Z,-1.00
